sensor_id;sensor_type;location;lat;lon;timestamp;temperature;humidity
73777;DHT22;62088;50.240;2.696;2022-09-13T00:01:33;19.40;74.10
73777;DHT22;62088;50.240;2.696;2022-09-13T00:04:01;19.40;74.20
73777;DHT22;62088;50.240;2.696;2022-09-13T00:06:28;19.40;74.20
73777;DHT22;62088;50.240;2.696;2022-09-13T00:08:55;19.40;74.30
73777;DHT22;62088;50.240;2.696;2022-09-13T00:11:24;19.40;74.30
73777;DHT22;62088;50.240;2.696;2022-09-13T00:13:51;19.40;74.30
73777;DHT22;62088;50.240;2.696;2022-09-13T00:16:21;19.40;74.50
73777;DHT22;62088;50.240;2.696;2022-09-13T00:18:49;19.40;74.40
73777;DHT22;62088;50.240;2.696;2022-09-13T00:21:18;19.40;74.40
73777;DHT22;62088;50.240;2.696;2022-09-13T00:23:47;19.40;74.30
73777;DHT22;62088;50.240;2.696;2022-09-13T00:26:23;19.40;74.30
73777;DHT22;62088;50.240;2.696;2022-09-13T00:28:56;19.40;74.50
73777;DHT22;62088;50.240;2.696;2022-09-13T00:31:25;19.40;74.50
73777;DHT22;62088;50.240;2.696;2022-09-13T00:33:53;19.40;74.50
73777;DHT22;62088;50.240;2.696;2022-09-13T00:36:21;19.40;74.60
73777;DHT22;62088;50.240;2.696;2022-09-13T00:38:48;19.40;74.70
73777;DHT22;62088;50.240;2.696;2022-09-13T00:41:16;19.40;74.60
73777;DHT22;62088;50.240;2.696;2022-09-13T00:49:21;19.40;74.30
73777;DHT22;62088;50.240;2.696;2022-09-13T00:51:57;19.40;74.20
73777;DHT22;62088;50.240;2.696;2022-09-13T00:54:29;19.40;74.20
73777;DHT22;62088;50.240;2.696;2022-09-13T00:56:59;19.40;74.20
73777;DHT22;62088;50.240;2.696;2022-09-13T00:59:33;19.40;74.10
73777;DHT22;62088;50.240;2.696;2022-09-13T01:02:03;19.40;74.10
73777;DHT22;62088;50.240;2.696;2022-09-13T01:04:32;19.40;74.10
73777;DHT22;62088;50.240;2.696;2022-09-13T01:07:06;19.40;74.00
73777;DHT22;62088;50.240;2.696;2022-09-13T01:09:39;19.40;74.10
73777;DHT22;62088;50.240;2.696;2022-09-13T01:12:10;19.40;74.10
73777;DHT22;62088;50.240;2.696;2022-09-13T01:14:40;19.40;74.10
73777;DHT22;62088;50.240;2.696;2022-09-13T01:17:07;19.40;74.10
73777;DHT22;62088;50.240;2.696;2022-09-13T01:19:35;19.40;74.20
73777;DHT22;62088;50.240;2.696;2022-09-13T01:30:35;19.40;73.90
73777;DHT22;62088;50.240;2.696;2022-09-13T01:34:14;19.40;73.90
73777;DHT22;62088;50.240;2.696;2022-09-13T01:39:04;19.50;73.60
73777;DHT22;62088;50.240;2.696;2022-09-13T01:41:42;19.50;73.60
73777;DHT22;62088;50.240;2.696;2022-09-13T01:46:50;19.40;73.60
73777;DHT22;62088;50.240;2.696;2022-09-13T01:52:16;19.50;73.60
73777;DHT22;62088;50.240;2.696;2022-09-13T01:57:21;19.50;73.60
73777;DHT22;62088;50.240;2.696;2022-09-13T01:59:59;19.50;73.60
73777;DHT22;62088;50.240;2.696;2022-09-13T02:02:30;19.50;73.60
73777;DHT22;62088;50.240;2.696;2022-09-13T02:05:03;19.50;73.60
73777;DHT22;62088;50.240;2.696;2022-09-13T02:07:42;19.60;73.80
73777;DHT22;62088;50.240;2.696;2022-09-13T02:10:15;19.60;74.00
73777;DHT22;62088;50.240;2.696;2022-09-13T02:12:45;19.50;74.10
73777;DHT22;62088;50.240;2.696;2022-09-13T02:15:43;19.50;74.30
73777;DHT22;62088;50.240;2.696;2022-09-13T02:18:08;19.40;74.50
73777;DHT22;62088;50.240;2.696;2022-09-13T02:20:39;19.40;74.50
73777;DHT22;62088;50.240;2.696;2022-09-13T02:23:25;19.40;74.70
73777;DHT22;62088;50.240;2.696;2022-09-13T02:25:56;19.40;74.80
73777;DHT22;62088;50.240;2.696;2022-09-13T02:28:33;19.40;74.90
73777;DHT22;62088;50.240;2.696;2022-09-13T02:31:04;19.40;75.00
73777;DHT22;62088;50.240;2.696;2022-09-13T02:33:38;19.40;75.00
73777;DHT22;62088;50.240;2.696;2022-09-13T02:36:14;19.40;75.00
73777;DHT22;62088;50.240;2.696;2022-09-13T02:38:51;19.40;75.10
73777;DHT22;62088;50.240;2.696;2022-09-13T02:41:32;19.40;75.30
73777;DHT22;62088;50.240;2.696;2022-09-13T02:44:13;19.40;75.40
73777;DHT22;62088;50.240;2.696;2022-09-13T02:49:53;19.40;75.70
73777;DHT22;62088;50.240;2.696;2022-09-13T03:00:15;19.30;76.10
73777;DHT22;62088;50.240;2.696;2022-09-13T03:02:43;19.30;76.10
73777;DHT22;62088;50.240;2.696;2022-09-13T03:05:11;19.30;76.10
73777;DHT22;62088;50.240;2.696;2022-09-13T03:07:38;19.30;76.30
73777;DHT22;62088;50.240;2.696;2022-09-13T03:10:08;19.20;76.40
73777;DHT22;62088;50.240;2.696;2022-09-13T03:13:01;19.20;76.40
73777;DHT22;62088;50.240;2.696;2022-09-13T03:21:51;19.30;76.50
73777;DHT22;62088;50.240;2.696;2022-09-13T03:29:56;19.20;76.70
73777;DHT22;62088;50.240;2.696;2022-09-13T03:32:31;19.20;76.80
73777;DHT22;62088;50.240;2.696;2022-09-13T03:45:54;19.20;77.10
73777;DHT22;62088;50.240;2.696;2022-09-13T03:48:22;19.20;77.10
73777;DHT22;62088;50.240;2.696;2022-09-13T03:50:49;19.20;77.20
73777;DHT22;62088;50.240;2.696;2022-09-13T03:53:27;19.10;77.30
73777;DHT22;62088;50.240;2.696;2022-09-13T03:55:56;19.10;77.40
73777;DHT22;62088;50.240;2.696;2022-09-13T03:58:24;19.20;77.40
73777;DHT22;62088;50.240;2.696;2022-09-13T04:00:52;19.20;77.50
73777;DHT22;62088;50.240;2.696;2022-09-13T04:03:20;19.10;77.50
73777;DHT22;62088;50.240;2.696;2022-09-13T04:05:46;19.10;77.50
73777;DHT22;62088;50.240;2.696;2022-09-13T04:08:13;19.10;77.60
73777;DHT22;62088;50.240;2.696;2022-09-13T04:10:40;19.10;77.60
73777;DHT22;62088;50.240;2.696;2022-09-13T04:13:07;19.10;77.70
73777;DHT22;62088;50.240;2.696;2022-09-13T04:15:34;19.10;77.60
73777;DHT22;62088;50.240;2.696;2022-09-13T04:18:01;19.10;77.60
73777;DHT22;62088;50.240;2.696;2022-09-13T04:20:28;19.10;77.70
73777;DHT22;62088;50.240;2.696;2022-09-13T04:22:56;19.10;77.70
73777;DHT22;62088;50.240;2.696;2022-09-13T04:25:23;19.10;77.80
73777;DHT22;62088;50.240;2.696;2022-09-13T04:27:55;19.00;77.90
73777;DHT22;62088;50.240;2.696;2022-09-13T04:30:22;19.00;78.10
73777;DHT22;62088;50.240;2.696;2022-09-13T04:32:49;19.00;78.10
73777;DHT22;62088;50.240;2.696;2022-09-13T04:35:16;19.00;78.20
73777;DHT22;62088;50.240;2.696;2022-09-13T04:37:45;19.00;78.20
73777;DHT22;62088;50.240;2.696;2022-09-13T04:40:12;19.00;78.30
73777;DHT22;62088;50.240;2.696;2022-09-13T04:42:40;19.00;78.30
73777;DHT22;62088;50.240;2.696;2022-09-13T04:45:09;19.00;78.30
73777;DHT22;62088;50.240;2.696;2022-09-13T04:47:36;19.00;78.30
73777;DHT22;62088;50.240;2.696;2022-09-13T04:50:04;18.90;78.30
73777;DHT22;62088;50.240;2.696;2022-09-13T04:52:31;18.90;78.40
73777;DHT22;62088;50.240;2.696;2022-09-13T04:54:58;19.00;78.50
73777;DHT22;62088;50.240;2.696;2022-09-13T04:57:27;18.90;78.50
73777;DHT22;62088;50.240;2.696;2022-09-13T04:59:55;19.00;78.50
73777;DHT22;62088;50.240;2.696;2022-09-13T05:02:21;18.90;78.60
73777;DHT22;62088;50.240;2.696;2022-09-13T05:04:49;18.90;78.60
73777;DHT22;62088;50.240;2.696;2022-09-13T05:07:16;18.90;78.60
73777;DHT22;62088;50.240;2.696;2022-09-13T05:09:43;18.90;78.60
73777;DHT22;62088;50.240;2.696;2022-09-13T05:12:10;19.00;78.60
73777;DHT22;62088;50.240;2.696;2022-09-13T05:14:37;18.90;78.60
73777;DHT22;62088;50.240;2.696;2022-09-13T05:17:04;18.90;78.60
73777;DHT22;62088;50.240;2.696;2022-09-13T05:19:31;18.90;78.60
73777;DHT22;62088;50.240;2.696;2022-09-13T05:21:58;18.90;78.60
73777;DHT22;62088;50.240;2.696;2022-09-13T05:24:25;18.90;78.70
73777;DHT22;62088;50.240;2.696;2022-09-13T05:26:53;18.90;78.70
73777;DHT22;62088;50.240;2.696;2022-09-13T05:29:20;18.90;78.70
73777;DHT22;62088;50.240;2.696;2022-09-13T05:31:47;18.90;78.80
73777;DHT22;62088;50.240;2.696;2022-09-13T05:34:15;18.90;78.80
73777;DHT22;62088;50.240;2.696;2022-09-13T05:36:43;18.90;78.80
73777;DHT22;62088;50.240;2.696;2022-09-13T05:39:14;18.90;78.90
73777;DHT22;62088;50.240;2.696;2022-09-13T05:42:03;18.90;79.00
73777;DHT22;62088;50.240;2.696;2022-09-13T05:44:30;18.90;79.10
73777;DHT22;62088;50.240;2.696;2022-09-13T05:46:57;18.90;79.10
73777;DHT22;62088;50.240;2.696;2022-09-13T05:49:24;18.90;79.20
73777;DHT22;62088;50.240;2.696;2022-09-13T05:51:51;18.90;79.30
73777;DHT22;62088;50.240;2.696;2022-09-13T05:54:18;18.90;79.40
73777;DHT22;62088;50.240;2.696;2022-09-13T05:56:45;18.90;79.40
73777;DHT22;62088;50.240;2.696;2022-09-13T05:59:12;18.90;79.50
73777;DHT22;62088;50.240;2.696;2022-09-13T06:01:42;18.90;79.60
73777;DHT22;62088;50.240;2.696;2022-09-13T06:04:09;18.90;79.80
73777;DHT22;62088;50.240;2.696;2022-09-13T06:06:38;18.80;79.90
73777;DHT22;62088;50.240;2.696;2022-09-13T06:09:05;18.80;80.00
73777;DHT22;62088;50.240;2.696;2022-09-13T06:11:34;18.80;80.00
73777;DHT22;62088;50.240;2.696;2022-09-13T06:14:02;18.80;80.10
73777;DHT22;62088;50.240;2.696;2022-09-13T06:16:30;18.80;80.20
73777;DHT22;62088;50.240;2.696;2022-09-13T06:18:58;18.80;80.30
73777;DHT22;62088;50.240;2.696;2022-09-13T06:21:25;18.80;80.40
73777;DHT22;62088;50.240;2.696;2022-09-13T06:23:55;18.80;80.50
73777;DHT22;62088;50.240;2.696;2022-09-13T06:26:24;18.80;80.60
73777;DHT22;62088;50.240;2.696;2022-09-13T06:28:53;18.80;80.70
73777;DHT22;62088;50.240;2.696;2022-09-13T06:31:22;18.80;80.70
73777;DHT22;62088;50.240;2.696;2022-09-13T06:33:55;18.80;80.80
73777;DHT22;62088;50.240;2.696;2022-09-13T06:36:23;18.80;80.80
73777;DHT22;62088;50.240;2.696;2022-09-13T06:38:50;18.80;80.90
73777;DHT22;62088;50.240;2.696;2022-09-13T06:41:22;18.90;81.00
73777;DHT22;62088;50.240;2.696;2022-09-13T06:43:57;18.90;81.00
73777;DHT22;62088;50.240;2.696;2022-09-13T06:46:26;18.90;81.10
73777;DHT22;62088;50.240;2.696;2022-09-13T06:48:54;18.90;81.20
73777;DHT22;62088;50.240;2.696;2022-09-13T06:51:23;18.90;81.20
73777;DHT22;62088;50.240;2.696;2022-09-13T06:53:51;18.90;81.10
73777;DHT22;62088;50.240;2.696;2022-09-13T06:56:22;18.90;81.20
73777;DHT22;62088;50.240;2.696;2022-09-13T06:58:50;18.90;81.20
73777;DHT22;62088;50.240;2.696;2022-09-13T07:01:20;18.90;81.20
73777;DHT22;62088;50.240;2.696;2022-09-13T07:03:49;18.90;81.30
73777;DHT22;62088;50.240;2.696;2022-09-13T07:06:18;18.90;81.30
73777;DHT22;62088;50.240;2.696;2022-09-13T07:08:50;18.90;81.30
73777;DHT22;62088;50.240;2.696;2022-09-13T07:11:19;18.90;81.20
73777;DHT22;62088;50.240;2.696;2022-09-13T07:13:55;19.00;81.20
73777;DHT22;62088;50.240;2.696;2022-09-13T07:16:27;19.00;81.20
73777;DHT22;62088;50.240;2.696;2022-09-13T07:18:56;19.00;81.40
73777;DHT22;62088;50.240;2.696;2022-09-13T07:21:24;19.00;81.50
73777;DHT22;62088;50.240;2.696;2022-09-13T07:23:53;18.90;81.60
73777;DHT22;62088;50.240;2.696;2022-09-13T07:26:21;19.00;81.60
73777;DHT22;62088;50.240;2.696;2022-09-13T07:28:52;18.90;81.70
73777;DHT22;62088;50.240;2.696;2022-09-13T07:31:21;18.90;81.70
73777;DHT22;62088;50.240;2.696;2022-09-13T07:33:56;18.90;81.70
73777;DHT22;62088;50.240;2.696;2022-09-13T07:36:24;18.90;81.80
73777;DHT22;62088;50.240;2.696;2022-09-13T07:38:52;18.90;81.90
73777;DHT22;62088;50.240;2.696;2022-09-13T07:41:21;19.00;82.00
73777;DHT22;62088;50.240;2.696;2022-09-13T07:43:48;19.00;82.10
73777;DHT22;62088;50.240;2.696;2022-09-13T07:46:21;19.00;82.10
73777;DHT22;62088;50.240;2.696;2022-09-13T07:48:50;19.00;82.20
73777;DHT22;62088;50.240;2.696;2022-09-13T07:51:21;19.00;82.20
73777;DHT22;62088;50.240;2.696;2022-09-13T07:53:49;19.10;82.20
73777;DHT22;62088;50.240;2.696;2022-09-13T07:56:25;19.10;82.30
73777;DHT22;62088;50.240;2.696;2022-09-13T07:58:53;19.10;82.30
73777;DHT22;62088;50.240;2.696;2022-09-13T08:01:24;19.10;82.40
73777;DHT22;62088;50.240;2.696;2022-09-13T08:03:57;19.20;82.40
73777;DHT22;62088;50.240;2.696;2022-09-13T08:06:26;19.20;82.40
73777;DHT22;62088;50.240;2.696;2022-09-13T08:08:53;19.20;82.50
73777;DHT22;62088;50.240;2.696;2022-09-13T08:11:41;19.20;82.50
73777;DHT22;62088;50.240;2.696;2022-09-13T08:14:11;19.20;82.60
73777;DHT22;62088;50.240;2.696;2022-09-13T08:16:38;19.30;82.60
73777;DHT22;62088;50.240;2.696;2022-09-13T08:19:06;19.30;82.60
73777;DHT22;62088;50.240;2.696;2022-09-13T08:21:36;19.30;82.70
73777;DHT22;62088;50.240;2.696;2022-09-13T08:24:05;19.30;82.70
73777;DHT22;62088;50.240;2.696;2022-09-13T08:26:33;19.40;82.70
73777;DHT22;62088;50.240;2.696;2022-09-13T08:29:03;19.40;82.80
73777;DHT22;62088;50.240;2.696;2022-09-13T08:31:31;19.40;82.80
73777;DHT22;62088;50.240;2.696;2022-09-13T08:33:59;19.40;82.90
73777;DHT22;62088;50.240;2.696;2022-09-13T08:36:27;19.40;82.90
73777;DHT22;62088;50.240;2.696;2022-09-13T08:38:59;19.50;83.00
73777;DHT22;62088;50.240;2.696;2022-09-13T08:47:22;19.60;83.20
73777;DHT22;62088;50.240;2.696;2022-09-13T08:50:09;19.60;83.30
73777;DHT22;62088;50.240;2.696;2022-09-13T09:01:17;19.80;83.00
73777;DHT22;62088;50.240;2.696;2022-09-13T09:06:47;19.90;83.00
73777;DHT22;62088;50.240;2.696;2022-09-13T09:09:18;19.90;83.00
73777;DHT22;62088;50.240;2.696;2022-09-13T09:11:51;19.90;82.80
73777;DHT22;62088;50.240;2.696;2022-09-13T09:14:34;19.90;82.60
73777;DHT22;62088;50.240;2.696;2022-09-13T09:17:09;19.90;82.50
73777;DHT22;62088;50.240;2.696;2022-09-13T09:19:53;19.90;82.10
73777;DHT22;62088;50.240;2.696;2022-09-13T09:22:24;19.90;81.70
73777;DHT22;62088;50.240;2.696;2022-09-13T09:24:56;19.90;81.60
73777;DHT22;62088;50.240;2.696;2022-09-13T09:27:23;19.90;81.80
73777;DHT22;62088;50.240;2.696;2022-09-13T09:29:51;19.90;81.80
73777;DHT22;62088;50.240;2.696;2022-09-13T09:37:41;20.10;81.00
73777;DHT22;62088;50.240;2.696;2022-09-13T09:40:13;20.10;81.00
73777;DHT22;62088;50.240;2.696;2022-09-13T09:42:45;20.10;81.20
73777;DHT22;62088;50.240;2.696;2022-09-13T09:45:27;20.20;81.30
73777;DHT22;62088;50.240;2.696;2022-09-13T09:47:57;20.20;81.50
73777;DHT22;62088;50.240;2.696;2022-09-13T09:50:33;20.30;81.50
73777;DHT22;62088;50.240;2.696;2022-09-13T09:53:07;20.30;81.60
73777;DHT22;62088;50.240;2.696;2022-09-13T09:55:54;20.30;81.50
73777;DHT22;62088;50.240;2.696;2022-09-13T09:58:40;20.40;81.30
73777;DHT22;62088;50.240;2.696;2022-09-13T10:01:20;20.40;80.90
73777;DHT22;62088;50.240;2.696;2022-09-13T10:06:42;20.40;80.50
73777;DHT22;62088;50.240;2.696;2022-09-13T10:09:17;20.50;80.60
73777;DHT22;62088;50.240;2.696;2022-09-13T10:11:47;20.60;80.50
73777;DHT22;62088;50.240;2.696;2022-09-13T10:19:59;20.80;80.10
73777;DHT22;62088;50.240;2.696;2022-09-13T10:22:29;20.80;79.80
73777;DHT22;62088;50.240;2.696;2022-09-13T10:27:49;20.90;79.20
73777;DHT22;62088;50.240;2.696;2022-09-13T10:30:38;20.90;78.80
73777;DHT22;62088;50.240;2.696;2022-09-13T10:33:23;21.00;78.60
73777;DHT22;62088;50.240;2.696;2022-09-13T10:35:53;21.10;78.40
73777;DHT22;62088;50.240;2.696;2022-09-13T10:38:36;21.10;78.20
73777;DHT22;62088;50.240;2.696;2022-09-13T10:41:10;21.20;78.10
73777;DHT22;62088;50.240;2.696;2022-09-13T10:43:46;21.20;77.70
73777;DHT22;62088;50.240;2.696;2022-09-13T10:46:21;21.20;77.40
73777;DHT22;62088;50.240;2.696;2022-09-13T10:48:50;21.20;77.20
73777;DHT22;62088;50.240;2.696;2022-09-13T10:54:08;21.30;77.10
73777;DHT22;62088;50.240;2.696;2022-09-13T10:56:36;21.30;77.10
73777;DHT22;62088;50.240;2.696;2022-09-13T10:59:23;21.30;76.90
73777;DHT22;62088;50.240;2.696;2022-09-13T11:09:43;21.40;76.80
73777;DHT22;62088;50.240;2.696;2022-09-13T11:12:21;21.40;76.80
73777;DHT22;62088;50.240;2.696;2022-09-13T11:15:01;21.40;76.60
73777;DHT22;62088;50.240;2.696;2022-09-13T11:47:10;21.10;78.30
73777;DHT22;62088;50.240;2.696;2022-09-13T11:58:01;21.10;77.60
73777;DHT22;62088;50.240;2.696;2022-09-13T12:00:51;21.10;77.30
73777;DHT22;62088;50.240;2.696;2022-09-13T12:08:23;21.10;77.20
73777;DHT22;62088;50.240;2.696;2022-09-13T12:10:55;21.10;77.10
73777;DHT22;62088;50.240;2.696;2022-09-13T12:13:29;21.10;77.10
73777;DHT22;62088;50.240;2.696;2022-09-13T12:16:00;21.10;77.10
73777;DHT22;62088;50.240;2.696;2022-09-13T12:18:35;21.10;76.90
73777;DHT22;62088;50.240;2.696;2022-09-13T12:21:10;21.10;76.80
73777;DHT22;62088;50.240;2.696;2022-09-13T12:26:34;21.20;76.50
73777;DHT22;62088;50.240;2.696;2022-09-13T12:32:09;21.20;76.50
73777;DHT22;62088;50.240;2.696;2022-09-13T12:34:49;21.20;76.50
73777;DHT22;62088;50.240;2.696;2022-09-13T12:40:29;21.20;76.70
73777;DHT22;62088;50.240;2.696;2022-09-13T12:51:05;21.20;76.70
73777;DHT22;62088;50.240;2.696;2022-09-13T12:54:10;21.20;76.90
73777;DHT22;62088;50.240;2.696;2022-09-13T12:56:50;21.30;76.90
73777;DHT22;62088;50.240;2.696;2022-09-13T12:59:48;21.30;77.00
73777;DHT22;62088;50.240;2.696;2022-09-13T13:02:49;21.30;77.40
73777;DHT22;62088;50.240;2.696;2022-09-13T13:05:27;21.30;77.50
73777;DHT22;62088;50.240;2.696;2022-09-13T13:08:05;21.40;77.20
73777;DHT22;62088;50.240;2.696;2022-09-13T13:10:36;21.40;76.80
73777;DHT22;62088;50.240;2.696;2022-09-13T13:13:12;21.40;76.40
73777;DHT22;62088;50.240;2.696;2022-09-13T13:23:27;21.60;76.70
73777;DHT22;62088;50.240;2.696;2022-09-13T13:29:10;21.70;76.50
73777;DHT22;62088;50.240;2.696;2022-09-13T13:31:48;21.80;76.10
73777;DHT22;62088;50.240;2.696;2022-09-13T13:34:47;21.80;75.70
73777;DHT22;62088;50.240;2.696;2022-09-13T13:39:46;21.80;75.40
73777;DHT22;62088;50.240;2.696;2022-09-13T13:42:28;21.90;75.50
73777;DHT22;62088;50.240;2.696;2022-09-13T13:45:13;21.90;75.60
73777;DHT22;62088;50.240;2.696;2022-09-13T13:47:51;21.90;75.50
73777;DHT22;62088;50.240;2.696;2022-09-13T13:50:21;22.00;75.40
73777;DHT22;62088;50.240;2.696;2022-09-13T13:52:52;22.00;75.30
73777;DHT22;62088;50.240;2.696;2022-09-13T13:55:25;22.10;75.10
73777;DHT22;62088;50.240;2.696;2022-09-13T13:58:03;22.10;74.80
73777;DHT22;62088;50.240;2.696;2022-09-13T14:00:33;22.20;74.50
73777;DHT22;62088;50.240;2.696;2022-09-13T14:05:52;22.30;74.40
73777;DHT22;62088;50.240;2.696;2022-09-13T14:20:20;22.30;73.20
73777;DHT22;62088;50.240;2.696;2022-09-13T14:22:47;22.30;73.20
73777;DHT22;62088;50.240;2.696;2022-09-13T14:27:45;22.30;73.40
73777;DHT22;62088;50.240;2.696;2022-09-13T14:30:26;22.30;73.50
73777;DHT22;62088;50.240;2.696;2022-09-13T14:32:56;22.30;73.40
73777;DHT22;62088;50.240;2.696;2022-09-13T14:38:08;22.20;73.40
73777;DHT22;62088;50.240;2.696;2022-09-13T14:40:35;22.20;73.60
73777;DHT22;62088;50.240;2.696;2022-09-13T14:43:17;22.20;73.50
73777;DHT22;62088;50.240;2.696;2022-09-13T14:45:47;22.20;73.20
73777;DHT22;62088;50.240;2.696;2022-09-13T14:48:20;22.20;73.10
73777;DHT22;62088;50.240;2.696;2022-09-13T14:51:19;22.10;72.90
73777;DHT22;62088;50.240;2.696;2022-09-13T14:53:51;22.10;72.90
73777;DHT22;62088;50.240;2.696;2022-09-13T14:56:36;22.20;73.00
73777;DHT22;62088;50.240;2.696;2022-09-13T14:59:16;22.10;72.80
73777;DHT22;62088;50.240;2.696;2022-09-13T15:01:45;22.10;72.80
73777;DHT22;62088;50.240;2.696;2022-09-13T15:04:12;22.10;72.70
73777;DHT22;62088;50.240;2.696;2022-09-13T15:06:43;22.10;72.70
73777;DHT22;62088;50.240;2.696;2022-09-13T15:14:28;22.10;72.20
73777;DHT22;62088;50.240;2.696;2022-09-13T15:17:11;22.10;72.30
73777;DHT22;62088;50.240;2.696;2022-09-13T15:19:47;22.10;72.30
73777;DHT22;62088;50.240;2.696;2022-09-13T15:22:24;22.10;72.40
73777;DHT22;62088;50.240;2.696;2022-09-13T15:24:56;22.10;72.30
73777;DHT22;62088;50.240;2.696;2022-09-13T15:27:26;22.20;72.30
73777;DHT22;62088;50.240;2.696;2022-09-13T15:30:01;22.20;72.40
73777;DHT22;62088;50.240;2.696;2022-09-13T15:32:39;22.20;72.80
73777;DHT22;62088;50.240;2.696;2022-09-13T15:35:28;22.20;72.80
73777;DHT22;62088;50.240;2.696;2022-09-13T15:38:00;22.20;72.70
73777;DHT22;62088;50.240;2.696;2022-09-13T15:40:29;22.20;72.70
73777;DHT22;62088;50.240;2.696;2022-09-13T15:43:06;22.20;72.60
73777;DHT22;62088;50.240;2.696;2022-09-13T15:45:33;22.20;72.80
73777;DHT22;62088;50.240;2.696;2022-09-13T15:48:00;22.20;72.90
73777;DHT22;62088;50.240;2.696;2022-09-13T15:50:29;22.20;72.70
73777;DHT22;62088;50.240;2.696;2022-09-13T15:53:00;22.20;72.80
73777;DHT22;62088;50.240;2.696;2022-09-13T15:55:27;22.20;72.80
73777;DHT22;62088;50.240;2.696;2022-09-13T15:57:56;22.20;72.70
73777;DHT22;62088;50.240;2.696;2022-09-13T16:00:25;22.20;72.30
73777;DHT22;62088;50.240;2.696;2022-09-13T16:02:53;22.10;72.30
73777;DHT22;62088;50.240;2.696;2022-09-13T16:05:20;22.20;72.40
73777;DHT22;62088;50.240;2.696;2022-09-13T16:07:48;22.10;72.40
73777;DHT22;62088;50.240;2.696;2022-09-13T16:10:18;22.10;72.40
73777;DHT22;62088;50.240;2.696;2022-09-13T16:12:46;22.10;72.40
73777;DHT22;62088;50.240;2.696;2022-09-13T16:15:13;22.10;72.30
73777;DHT22;62088;50.240;2.696;2022-09-13T16:17:40;22.10;72.20
73777;DHT22;62088;50.240;2.696;2022-09-13T16:20:11;22.10;72.20
73777;DHT22;62088;50.240;2.696;2022-09-13T16:22:38;22.00;72.20
73777;DHT22;62088;50.240;2.696;2022-09-13T16:25:05;22.00;72.20
73777;DHT22;62088;50.240;2.696;2022-09-13T16:27:33;22.10;72.20
73777;DHT22;62088;50.240;2.696;2022-09-13T16:30:00;22.00;72.30
73777;DHT22;62088;50.240;2.696;2022-09-13T16:32:27;22.00;72.20
73777;DHT22;62088;50.240;2.696;2022-09-13T16:34:54;22.00;72.10
73777;DHT22;62088;50.240;2.696;2022-09-13T16:37:21;21.90;72.20
73777;DHT22;62088;50.240;2.696;2022-09-13T16:39:48;21.90;72.50
73777;DHT22;62088;50.240;2.696;2022-09-13T16:42:16;21.90;72.40
73777;DHT22;62088;50.240;2.696;2022-09-13T16:44:43;21.90;72.40
73777;DHT22;62088;50.240;2.696;2022-09-13T16:47:10;21.90;72.50
73777;DHT22;62088;50.240;2.696;2022-09-13T16:49:37;21.90;72.50
73777;DHT22;62088;50.240;2.696;2022-09-13T16:52:04;21.90;72.50
73777;DHT22;62088;50.240;2.696;2022-09-13T16:54:31;21.90;72.40
73777;DHT22;62088;50.240;2.696;2022-09-13T16:57:02;21.80;72.50
73777;DHT22;62088;50.240;2.696;2022-09-13T16:59:30;21.80;72.60
73777;DHT22;62088;50.240;2.696;2022-09-13T17:01:58;21.80;72.80
73777;DHT22;62088;50.240;2.696;2022-09-13T17:04:25;21.80;72.80
73777;DHT22;62088;50.240;2.696;2022-09-13T17:06:52;21.80;72.80
73777;DHT22;62088;50.240;2.696;2022-09-13T17:09:19;21.80;72.90
73777;DHT22;62088;50.240;2.696;2022-09-13T17:11:48;21.80;73.10
73777;DHT22;62088;50.240;2.696;2022-09-13T17:14:15;21.80;73.40
73777;DHT22;62088;50.240;2.696;2022-09-13T17:16:51;21.70;73.50
73777;DHT22;62088;50.240;2.696;2022-09-13T17:19:21;21.70;73.50
73777;DHT22;62088;50.240;2.696;2022-09-13T17:21:50;21.70;73.50
73777;DHT22;62088;50.240;2.696;2022-09-13T17:24:17;21.70;73.50
73777;DHT22;62088;50.240;2.696;2022-09-13T17:26:44;21.60;73.50
73777;DHT22;62088;50.240;2.696;2022-09-13T17:29:13;21.60;73.30
73777;DHT22;62088;50.240;2.696;2022-09-13T17:31:42;21.60;73.00
73777;DHT22;62088;50.240;2.696;2022-09-13T17:34:10;21.60;72.80
73777;DHT22;62088;50.240;2.696;2022-09-13T17:36:38;21.60;72.60
73777;DHT22;62088;50.240;2.696;2022-09-13T17:39:06;21.50;72.40
73777;DHT22;62088;50.240;2.696;2022-09-13T17:41:33;21.50;72.30
73777;DHT22;62088;50.240;2.696;2022-09-13T17:44:01;21.50;72.20
73777;DHT22;62088;50.240;2.696;2022-09-13T17:46:28;21.40;72.20
73777;DHT22;62088;50.240;2.696;2022-09-13T17:48:57;21.40;72.20
73777;DHT22;62088;50.240;2.696;2022-09-13T17:51:29;21.40;72.10
73777;DHT22;62088;50.240;2.696;2022-09-13T17:54:01;21.40;72.00
73777;DHT22;62088;50.240;2.696;2022-09-13T17:56:38;21.40;72.20
73777;DHT22;62088;50.240;2.696;2022-09-13T17:59:11;21.30;72.40
73777;DHT22;62088;50.240;2.696;2022-09-13T18:01:41;21.30;72.50
73777;DHT22;62088;50.240;2.696;2022-09-13T18:04:09;21.30;72.50
73777;DHT22;62088;50.240;2.696;2022-09-13T18:06:37;21.20;72.40
73777;DHT22;62088;50.240;2.696;2022-09-13T18:09:09;21.20;72.30
73777;DHT22;62088;50.240;2.696;2022-09-13T18:11:36;21.10;72.10
73777;DHT22;62088;50.240;2.696;2022-09-13T18:14:04;21.10;72.00
73777;DHT22;62088;50.240;2.696;2022-09-13T18:16:31;21.10;71.90
73777;DHT22;62088;50.240;2.696;2022-09-13T18:18:59;21.10;71.90
73777;DHT22;62088;50.240;2.696;2022-09-13T18:21:27;21.10;71.90
73777;DHT22;62088;50.240;2.696;2022-09-13T18:23:57;21.00;71.90
73777;DHT22;62088;50.240;2.696;2022-09-13T18:26:26;21.00;71.90
73777;DHT22;62088;50.240;2.696;2022-09-13T18:28:55;21.00;72.00
73777;DHT22;62088;50.240;2.696;2022-09-13T18:31:24;20.90;72.10
73777;DHT22;62088;50.240;2.696;2022-09-13T18:33:59;21.00;72.20
73777;DHT22;62088;50.240;2.696;2022-09-13T18:36:27;20.90;72.30
73777;DHT22;62088;50.240;2.696;2022-09-13T18:38:56;20.90;72.30
73777;DHT22;62088;50.240;2.696;2022-09-13T18:41:25;20.90;72.40
73777;DHT22;62088;50.240;2.696;2022-09-13T18:43:54;20.90;72.50
73777;DHT22;62088;50.240;2.696;2022-09-13T18:46:25;20.90;72.50
73777;DHT22;62088;50.240;2.696;2022-09-13T18:48:54;20.90;72.50
73777;DHT22;62088;50.240;2.696;2022-09-13T18:51:31;20.80;72.50
73777;DHT22;62088;50.240;2.696;2022-09-13T18:53:59;20.80;72.50
73777;DHT22;62088;50.240;2.696;2022-09-13T18:56:27;20.80;72.50
73777;DHT22;62088;50.240;2.696;2022-09-13T18:58:55;20.80;72.50
73777;DHT22;62088;50.240;2.696;2022-09-13T19:01:25;20.80;72.50
73777;DHT22;62088;50.240;2.696;2022-09-13T19:04:07;20.80;72.40
73777;DHT22;62088;50.240;2.696;2022-09-13T19:06:38;20.80;72.30
73777;DHT22;62088;50.240;2.696;2022-09-13T19:09:06;20.80;72.20
73777;DHT22;62088;50.240;2.696;2022-09-13T19:11:39;20.70;72.10
73777;DHT22;62088;50.240;2.696;2022-09-13T19:14:15;20.70;72.00
73777;DHT22;62088;50.240;2.696;2022-09-13T19:16:42;20.70;71.90
73777;DHT22;62088;50.240;2.696;2022-09-13T19:19:09;20.70;71.90